sensor_id;sensor_type;location;lat;lon;timestamp;P1;durP1;ratioP1;P2;durP2;ratioP2
23322;SDS011;11833;52.554;13.554;2024-01-11T00:00:30;20.30;;;10.75;;
23322;SDS011;11833;52.554;13.554;2024-01-11T00:02:55;21.75;;;11.25;;
23322;SDS011;11833;52.554;13.554;2024-01-11T00:05:21;16.17;;;8.75;;
23322;SDS011;11833;52.554;13.554;2024-01-11T00:07:47;15.15;;;7.95;;
23322;SDS011;11833;52.554;13.554;2024-01-11T00:10:13;13.95;;;6.97;;
23322;SDS011;11833;52.554;13.554;2024-01-11T00:12:39;10.77;;;6.90;;
23322;SDS011;11833;52.554;13.554;2024-01-11T00:15:05;12.57;;;6.95;;
23322;SDS011;11833;52.554;13.554;2024-01-11T00:17:31;15.45;;;6.72;;
23322;SDS011;11833;52.554;13.554;2024-01-11T00:19:57;14.32;;;7.43;;
23322;SDS011;11833;52.554;13.554;2024-01-11T00:22:22;15.70;;;7.53;;
23322;SDS011;11833;52.554;13.554;2024-01-11T00:24:48;16.08;;;7.45;;
23322;SDS011;11833;52.554;13.554;2024-01-11T00:27:14;15.30;;;7.50;;
23322;SDS011;11833;52.554;13.554;2024-01-11T00:29:40;12.02;;;6.32;;
23322;SDS011;11833;52.554;13.554;2024-01-11T00:32:06;11.80;;;6.80;;
23322;SDS011;11833;52.554;13.554;2024-01-11T00:34:31;11.40;;;6.38;;
23322;SDS011;11833;52.554;13.554;2024-01-11T00:36:57;10.38;;;5.97;;
23322;SDS011;11833;52.554;13.554;2024-01-11T00:39:23;13.70;;;5.93;;
23322;SDS011;11833;52.554;13.554;2024-01-11T00:41:49;14.32;;;6.60;;
23322;SDS011;11833;52.554;13.554;2024-01-11T00:44:16;12.27;;;7.30;;
23322;SDS011;11833;52.554;13.554;2024-01-11T00:46:41;16.17;;;7.30;;
23322;SDS011;11833;52.554;13.554;2024-01-11T00:49:07;13.63;;;6.20;;
23322;SDS011;11833;52.554;13.554;2024-01-11T00:51:33;14.75;;;6.57;;
23322;SDS011;11833;52.554;13.554;2024-01-11T00:53:58;11.13;;;5.57;;
23322;SDS011;11833;52.554;13.554;2024-01-11T00:56:24;13.80;;;7.38;;
23322;SDS011;11833;52.554;13.554;2024-01-11T00:58:50;15.15;;;7.28;;
23322;SDS011;11833;52.554;13.554;2024-01-11T01:01:16;17.33;;;8.63;;
23322;SDS011;11833;52.554;13.554;2024-01-11T01:03:41;12.30;;;7.25;;
23322;SDS011;11833;52.554;13.554;2024-01-11T01:06:07;17.35;;;8.10;;
23322;SDS011;11833;52.554;13.554;2024-01-11T01:08:33;15.82;;;7.80;;
23322;SDS011;11833;52.554;13.554;2024-01-11T01:10:58;16.58;;;7.35;;
23322;SDS011;11833;52.554;13.554;2024-01-11T01:13:24;18.38;;;8.32;;
23322;SDS011;11833;52.554;13.554;2024-01-11T01:15:50;21.35;;;9.13;;
23322;SDS011;11833;52.554;13.554;2024-01-11T01:18:16;20.85;;;8.00;;
23322;SDS011;11833;52.554;13.554;2024-01-11T01:20:42;15.05;;;7.32;;
23322;SDS011;11833;52.554;13.554;2024-01-11T01:23:08;19.55;;;8.45;;
23322;SDS011;11833;52.554;13.554;2024-01-11T01:25:34;17.52;;;8.05;;
23322;SDS011;11833;52.554;13.554;2024-01-11T01:27:59;17.10;;;7.38;;
23322;SDS011;11833;52.554;13.554;2024-01-11T01:30:26;13.45;;;7.05;;
23322;SDS011;11833;52.554;13.554;2024-01-11T01:32:52;13.82;;;6.35;;
23322;SDS011;11833;52.554;13.554;2024-01-11T01:35:19;15.75;;;6.95;;
23322;SDS011;11833;52.554;13.554;2024-01-11T01:37:44;13.52;;;6.75;;
23322;SDS011;11833;52.554;13.554;2024-01-11T01:40:13;13.23;;;6.85;;
23322;SDS011;11833;52.554;13.554;2024-01-11T01:42:42;12.25;;;6.15;;
23322;SDS011;11833;52.554;13.554;2024-01-11T01:45:09;12.35;;;5.65;;
23322;SDS011;11833;52.554;13.554;2024-01-11T01:47:35;14.40;;;6.90;;
23322;SDS011;11833;52.554;13.554;2024-01-11T01:50:03;12.13;;;5.35;;
23322;SDS011;11833;52.554;13.554;2024-01-11T01:52:30;8.95;;;5.53;;
23322;SDS011;11833;52.554;13.554;2024-01-11T01:54:57;11.23;;;5.85;;
23322;SDS011;11833;52.554;13.554;2024-01-11T01:57:24;10.55;;;5.78;;
23322;SDS011;11833;52.554;13.554;2024-01-11T01:59:51;10.57;;;5.45;;
23322;SDS011;11833;52.554;13.554;2024-01-11T02:02:18;10.95;;;5.38;;
23322;SDS011;11833;52.554;13.554;2024-01-11T02:04:45;9.82;;;4.93;;
23322;SDS011;11833;52.554;13.554;2024-01-11T02:07:11;9.43;;;5.82;;
23322;SDS011;11833;52.554;13.554;2024-01-11T02:09:37;10.05;;;5.32;;
23322;SDS011;11833;52.554;13.554;2024-01-11T02:12:03;11.77;;;5.45;;
23322;SDS011;11833;52.554;13.554;2024-01-11T02:14:31;9.70;;;5.57;;
23322;SDS011;11833;52.554;13.554;2024-01-11T02:16:57;10.20;;;5.78;;
23322;SDS011;11833;52.554;13.554;2024-01-11T02:19:22;12.57;;;5.72;;
23322;SDS011;11833;52.554;13.554;2024-01-11T02:21:49;9.50;;;5.30;;
23322;SDS011;11833;52.554;13.554;2024-01-11T02:24:19;11.98;;;5.85;;
23322;SDS011;11833;52.554;13.554;2024-01-11T02:27:02;10.48;;;5.35;;
23322;SDS011;11833;52.554;13.554;2024-01-11T02:29:30;9.15;;;5.15;;
23322;SDS011;11833;52.554;13.554;2024-01-11T02:31:57;10.73;;;5.35;;
23322;SDS011;11833;52.554;13.554;2024-01-11T02:34:24;12.23;;;4.70;;
23322;SDS011;11833;52.554;13.554;2024-01-11T02:36:52;11.05;;;4.40;;
23322;SDS011;11833;52.554;13.554;2024-01-11T02:39:19;10.13;;;4.80;;
23322;SDS011;11833;52.554;13.554;2024-01-11T02:41:45;12.70;;;6.07;;
23322;SDS011;11833;52.554;13.554;2024-01-11T02:44:15;11.25;;;4.95;;
23322;SDS011;11833;52.554;13.554;2024-01-11T02:46:40;8.45;;;5.07;;
23322;SDS011;11833;52.554;13.554;2024-01-11T02:49:06;7.40;;;4.30;;
23322;SDS011;11833;52.554;13.554;2024-01-11T02:51:32;12.07;;;6.28;;
23322;SDS011;11833;52.554;13.554;2024-01-11T02:53:58;12.73;;;6.72;;
23322;SDS011;11833;52.554;13.554;2024-01-11T02:56:24;12.02;;;5.25;;
23322;SDS011;11833;52.554;13.554;2024-01-11T02:58:50;12.02;;;5.82;;
23322;SDS011;11833;52.554;13.554;2024-01-11T03:01:15;11.30;;;6.13;;
23322;SDS011;11833;52.554;13.554;2024-01-11T03:03:41;13.57;;;5.63;;
23322;SDS011;11833;52.554;13.554;2024-01-11T03:06:07;9.57;;;4.95;;
23322;SDS011;11833;52.554;13.554;2024-01-11T03:08:33;9.82;;;5.38;;
23322;SDS011;11833;52.554;13.554;2024-01-11T03:10:59;11.15;;;4.93;;
23322;SDS011;11833;52.554;13.554;2024-01-11T03:13:24;10.38;;;5.80;;
23322;SDS011;11833;52.554;13.554;2024-01-11T03:15:50;9.73;;;4.85;;
23322;SDS011;11833;52.554;13.554;2024-01-11T03:18:16;8.80;;;4.85;;
23322;SDS011;11833;52.554;13.554;2024-01-11T03:20:42;11.55;;;5.50;;
23322;SDS011;11833;52.554;13.554;2024-01-11T03:23:07;8.57;;;5.30;;
23322;SDS011;11833;52.554;13.554;2024-01-11T03:25:33;12.85;;;5.82;;
23322;SDS011;11833;52.554;13.554;2024-01-11T03:27:59;10.38;;;5.43;;
23322;SDS011;11833;52.554;13.554;2024-01-11T03:30:25;11.35;;;5.22;;
23322;SDS011;11833;52.554;13.554;2024-01-11T03:32:50;9.38;;;5.40;;
23322;SDS011;11833;52.554;13.554;2024-01-11T03:35:17;8.80;;;5.28;;
23322;SDS011;11833;52.554;13.554;2024-01-11T03:37:44;11.68;;;4.97;;
23322;SDS011;11833;52.554;13.554;2024-01-11T03:40:10;9.35;;;5.35;;
23322;SDS011;11833;52.554;13.554;2024-01-11T03:42:36;10.77;;;5.80;;
23322;SDS011;11833;52.554;13.554;2024-01-11T03:45:03;10.93;;;5.07;;
23322;SDS011;11833;52.554;13.554;2024-01-11T03:47:29;11.10;;;5.15;;
23322;SDS011;11833;52.554;13.554;2024-01-11T03:49:55;15.55;;;5.97;;
23322;SDS011;11833;52.554;13.554;2024-01-11T03:52:21;12.68;;;5.50;;
23322;SDS011;11833;52.554;13.554;2024-01-11T03:54:47;12.68;;;6.00;;
23322;SDS011;11833;52.554;13.554;2024-01-11T03:57:13;12.18;;;6.07;;
23322;SDS011;11833;52.554;13.554;2024-01-11T03:59:39;13.32;;;6.15;;
23322;SDS011;11833;52.554;13.554;2024-01-11T04:02:05;16.15;;;7.13;;
23322;SDS011;11833;52.554;13.554;2024-01-11T04:04:32;14.10;;;7.15;;
23322;SDS011;11833;52.554;13.554;2024-01-11T04:06:58;13.77;;;6.57;;
23322;SDS011;11833;52.554;13.554;2024-01-11T04:09:24;22.00;;;8.07;;
23322;SDS011;11833;52.554;13.554;2024-01-11T04:11:50;19.38;;;7.15;;
23322;SDS011;11833;52.554;13.554;2024-01-11T04:14:15;14.73;;;7.43;;
23322;SDS011;11833;52.554;13.554;2024-01-11T04:16:42;21.30;;;8.00;;
23322;SDS011;11833;52.554;13.554;2024-01-11T04:19:08;21.90;;;8.63;;
23322;SDS011;11833;52.554;13.554;2024-01-11T04:21:34;17.20;;;7.32;;
23322;SDS011;11833;52.554;13.554;2024-01-11T04:24:00;16.23;;;6.50;;
23322;SDS011;11833;52.554;13.554;2024-01-11T04:26:26;22.05;;;8.45;;
23322;SDS011;11833;52.554;13.554;2024-01-11T04:28:51;15.38;;;6.95;;
23322;SDS011;11833;52.554;13.554;2024-01-11T04:31:18;17.85;;;8.05;;
23322;SDS011;11833;52.554;13.554;2024-01-11T04:33:44;17.77;;;7.28;;
23322;SDS011;11833;52.554;13.554;2024-01-11T04:36:11;15.20;;;7.18;;
23322;SDS011;11833;52.554;13.554;2024-01-11T04:38:38;19.83;;;7.63;;
23322;SDS011;11833;52.554;13.554;2024-01-11T04:41:07;18.98;;;6.93;;
23322;SDS011;11833;52.554;13.554;2024-01-11T04:43:40;19.58;;;8.05;;
23322;SDS011;11833;52.554;13.554;2024-01-11T04:46:17;19.75;;;8.45;;
23322;SDS011;11833;52.554;13.554;2024-01-11T04:48:45;18.50;;;7.88;;
23322;SDS011;11833;52.554;13.554;2024-01-11T04:51:12;18.00;;;8.40;;
23322;SDS011;11833;52.554;13.554;2024-01-11T04:53:39;19.35;;;8.82;;
23322;SDS011;11833;52.554;13.554;2024-01-11T04:56:06;18.67;;;7.22;;
23322;SDS011;11833;52.554;13.554;2024-01-11T04:58:34;16.48;;;7.57;;
23322;SDS011;11833;52.554;13.554;2024-01-11T05:01:02;17.45;;;7.78;;
23322;SDS011;11833;52.554;13.554;2024-01-11T05:03:29;18.25;;;7.93;;
23322;SDS011;11833;52.554;13.554;2024-01-11T05:05:56;18.08;;;7.97;;
23322;SDS011;11833;52.554;13.554;2024-01-11T05:08:23;17.98;;;8.85;;
23322;SDS011;11833;52.554;13.554;2024-01-11T05:10:49;20.50;;;9.55;;
23322;SDS011;11833;52.554;13.554;2024-01-11T05:13:15;19.20;;;8.40;;
23322;SDS011;11833;52.554;13.554;2024-01-11T05:15:42;20.63;;;8.80;;
23322;SDS011;11833;52.554;13.554;2024-01-11T05:18:08;20.10;;;8.57;;
23322;SDS011;11833;52.554;13.554;2024-01-11T05:20:33;23.88;;;8.20;;
23322;SDS011;11833;52.554;13.554;2024-01-11T05:22:59;27.35;;;9.40;;
23322;SDS011;11833;52.554;13.554;2024-01-11T05:25:26;26.90;;;9.98;;
23322;SDS011;11833;52.554;13.554;2024-01-11T05:27:52;19.88;;;8.65;;
23322;SDS011;11833;52.554;13.554;2024-01-11T05:30:17;23.30;;;10.13;;
23322;SDS011;11833;52.554;13.554;2024-01-11T05:32:43;23.27;;;9.45;;
23322;SDS011;11833;52.554;13.554;2024-01-11T05:35:09;28.60;;;10.40;;
23322;SDS011;11833;52.554;13.554;2024-01-11T05:37:35;18.67;;;8.38;;
23322;SDS011;11833;52.554;13.554;2024-01-11T05:40:01;21.50;;;10.23;;
23322;SDS011;11833;52.554;13.554;2024-01-11T05:42:28;28.70;;;10.27;;
23322;SDS011;11833;52.554;13.554;2024-01-11T05:44:53;22.42;;;10.20;;
23322;SDS011;11833;52.554;13.554;2024-01-11T05:47:19;28.83;;;10.60;;
23322;SDS011;11833;52.554;13.554;2024-01-11T05:49:45;21.65;;;10.85;;
23322;SDS011;11833;52.554;13.554;2024-01-11T05:52:11;19.92;;;8.75;;
23322;SDS011;11833;52.554;13.554;2024-01-11T05:54:36;23.08;;;9.93;;
23322;SDS011;11833;52.554;13.554;2024-01-11T05:57:02;26.15;;;9.60;;
23322;SDS011;11833;52.554;13.554;2024-01-11T05:59:28;23.95;;;9.48;;
23322;SDS011;11833;52.554;13.554;2024-01-11T06:01:54;25.02;;;9.27;;
23322;SDS011;11833;52.554;13.554;2024-01-11T06:04:19;21.27;;;8.93;;
23322;SDS011;11833;52.554;13.554;2024-01-11T06:06:45;23.50;;;9.93;;
23322;SDS011;11833;52.554;13.554;2024-01-11T06:09:11;29.23;;;11.18;;
23322;SDS011;11833;52.554;13.554;2024-01-11T06:11:36;25.95;;;10.65;;
23322;SDS011;11833;52.554;13.554;2024-01-11T06:14:02;24.58;;;9.88;;
23322;SDS011;11833;52.554;13.554;2024-01-11T06:16:28;32.30;;;10.48;;
23322;SDS011;11833;52.554;13.554;2024-01-11T06:18:54;20.30;;;9.60;;
23322;SDS011;11833;52.554;13.554;2024-01-11T06:21:20;23.52;;;9.90;;
23322;SDS011;11833;52.554;13.554;2024-01-11T06:23:46;21.30;;;9.45;;
23322;SDS011;11833;52.554;13.554;2024-01-11T06:26:11;26.15;;;11.18;;
23322;SDS011;11833;52.554;13.554;2024-01-11T06:28:37;25.95;;;9.85;;
23322;SDS011;11833;52.554;13.554;2024-01-11T06:31:03;20.08;;;8.57;;
23322;SDS011;11833;52.554;13.554;2024-01-11T06:33:29;24.02;;;10.13;;
23322;SDS011;11833;52.554;13.554;2024-01-11T06:35:54;26.60;;;10.05;;
23322;SDS011;11833;52.554;13.554;2024-01-11T06:38:21;24.52;;;10.40;;
23322;SDS011;11833;52.554;13.554;2024-01-11T06:40:47;24.27;;;11.43;;
23322;SDS011;11833;52.554;13.554;2024-01-11T06:43:14;30.98;;;10.27;;
23322;SDS011;11833;52.554;13.554;2024-01-11T06:45:40;27.77;;;10.00;;
23322;SDS011;11833;52.554;13.554;2024-01-11T06:48:08;24.77;;;10.52;;
23322;SDS011;11833;52.554;13.554;2024-01-11T06:50:33;23.52;;;9.98;;
23322;SDS011;11833;52.554;13.554;2024-01-11T06:52:59;24.88;;;10.20;;
23322;SDS011;11833;52.554;13.554;2024-01-11T06:55:26;27.83;;;10.43;;
23322;SDS011;11833;52.554;13.554;2024-01-11T06:57:52;25.20;;;10.57;;
23322;SDS011;11833;52.554;13.554;2024-01-11T07:00:18;23.40;;;9.85;;
23322;SDS011;11833;52.554;13.554;2024-01-11T07:02:44;23.20;;;10.25;;
23322;SDS011;11833;52.554;13.554;2024-01-11T07:05:10;31.30;;;12.13;;
23322;SDS011;11833;52.554;13.554;2024-01-11T07:07:36;29.88;;;11.38;;
23322;SDS011;11833;52.554;13.554;2024-01-11T07:10:02;25.70;;;10.25;;
23322;SDS011;11833;52.554;13.554;2024-01-11T07:12:30;23.58;;;11.30;;
23322;SDS011;11833;52.554;13.554;2024-01-11T07:14:56;24.75;;;10.23;;
23322;SDS011;11833;52.554;13.554;2024-01-11T07:17:22;19.75;;;9.93;;
23322;SDS011;11833;52.554;13.554;2024-01-11T07:19:48;24.85;;;10.25;;
23322;SDS011;11833;52.554;13.554;2024-01-11T07:22:14;22.70;;;10.05;;
23322;SDS011;11833;52.554;13.554;2024-01-11T07:24:40;22.92;;;9.32;;
23322;SDS011;11833;52.554;13.554;2024-01-11T07:27:06;25.85;;;9.90;;
23322;SDS011;11833;52.554;13.554;2024-01-11T07:29:32;25.40;;;10.75;;
23322;SDS011;11833;52.554;13.554;2024-01-11T07:31:59;23.52;;;10.52;;
23322;SDS011;11833;52.554;13.554;2024-01-11T07:34:25;25.95;;;10.80;;
23322;SDS011;11833;52.554;13.554;2024-01-11T07:36:52;23.83;;;10.63;;
23322;SDS011;11833;52.554;13.554;2024-01-11T07:39:18;24.15;;;10.05;;
23322;SDS011;11833;52.554;13.554;2024-01-11T07:41:44;24.23;;;10.55;;
23322;SDS011;11833;52.554;13.554;2024-01-11T07:44:10;22.92;;;10.18;;
23322;SDS011;11833;52.554;13.554;2024-01-11T07:46:36;22.52;;;9.88;;
23322;SDS011;11833;52.554;13.554;2024-01-11T07:49:05;22.38;;;9.73;;
23322;SDS011;11833;52.554;13.554;2024-01-11T07:51:32;21.38;;;10.27;;
23322;SDS011;11833;52.554;13.554;2024-01-11T07:54:01;21.85;;;10.13;;
23322;SDS011;11833;52.554;13.554;2024-01-11T07:56:27;23.20;;;10.48;;
23322;SDS011;11833;52.554;13.554;2024-01-11T07:58:54;22.27;;;9.82;;
23322;SDS011;11833;52.554;13.554;2024-01-11T08:01:20;27.42;;;11.43;;
23322;SDS011;11833;52.554;13.554;2024-01-11T08:03:46;25.67;;;10.00;;
23322;SDS011;11833;52.554;13.554;2024-01-11T08:06:12;23.83;;;10.77;;
23322;SDS011;11833;52.554;13.554;2024-01-11T08:08:38;23.52;;;10.90;;
23322;SDS011;11833;52.554;13.554;2024-01-11T08:11:04;25.75;;;11.45;;
23322;SDS011;11833;52.554;13.554;2024-01-11T08:13:32;22.48;;;10.13;;
23322;SDS011;11833;52.554;13.554;2024-01-11T08:16:00;24.98;;;9.35;;
23322;SDS011;11833;52.554;13.554;2024-01-11T08:18:30;25.05;;;10.18;;
23322;SDS011;11833;52.554;13.554;2024-01-11T08:20:56;22.75;;;10.77;;
23322;SDS011;11833;52.554;13.554;2024-01-11T08:23:21;27.25;;;10.60;;
23322;SDS011;11833;52.554;13.554;2024-01-11T08:25:47;23.90;;;11.15;;
23322;SDS011;11833;52.554;13.554;2024-01-11T08:28:13;25.75;;;11.07;;
23322;SDS011;11833;52.554;13.554;2024-01-11T08:30:39;25.08;;;11.68;;
23322;SDS011;11833;52.554;13.554;2024-01-11T08:33:04;26.60;;;12.00;;
23322;SDS011;11833;52.554;13.554;2024-01-11T08:35:30;21.58;;;10.88;;
23322;SDS011;11833;52.554;13.554;2024-01-11T08:37:57;21.02;;;10.45;;
23322;SDS011;11833;52.554;13.554;2024-01-11T08:40:23;25.83;;;10.88;;
23322;SDS011;11833;52.554;13.554;2024-01-11T08:42:49;23.23;;;11.20;;
23322;SDS011;11833;52.554;13.554;2024-01-11T08:45:14;24.15;;;10.55;;
23322;SDS011;11833;52.554;13.554;2024-01-11T08:47:45;21.60;;;10.43;;
23322;SDS011;11833;52.554;13.554;2024-01-11T08:50:15;24.83;;;11.27;;
23322;SDS011;11833;52.554;13.554;2024-01-11T08:52:41;30.92;;;11.90;;
23322;SDS011;11833;52.554;13.554;2024-01-11T08:55:07;23.70;;;10.10;;
23322;SDS011;11833;52.554;13.554;2024-01-11T08:57:33;25.67;;;11.45;;
23322;SDS011;11833;52.554;13.554;2024-01-11T09:00:03;25.83;;;12.13;;
23322;SDS011;11833;52.554;13.554;2024-01-11T09:02:34;24.27;;;11.15;;
23322;SDS011;11833;52.554;13.554;2024-01-11T09:05:00;30.27;;;11.52;;
23322;SDS011;11833;52.554;13.554;2024-01-11T09:07:27;28.63;;;10.85;;
23322;SDS011;11833;52.554;13.554;2024-01-11T09:09:52;23.27;;;10.73;;
23322;SDS011;11833;52.554;13.554;2024-01-11T09:12:19;19.92;;;9.75;;
23322;SDS011;11833;52.554;13.554;2024-01-11T09:14:45;28.92;;;11.68;;
23322;SDS011;11833;52.554;13.554;2024-01-11T09:17:11;25.40;;;10.90;;
23322;SDS011;11833;52.554;13.554;2024-01-11T09:19:36;23.15;;;10.02;;
23322;SDS011;11833;52.554;13.554;2024-01-11T09:22:05;20.73;;;10.82;;
23322;SDS011;11833;52.554;13.554;2024-01-11T09:24:33;17.10;;;9.00;;
23322;SDS011;11833;52.554;13.554;2024-01-11T09:26:59;21.45;;;9.52;;
23322;SDS011;11833;52.554;13.554;2024-01-11T09:29:24;27.27;;;10.82;;
23322;SDS011;11833;52.554;13.554;2024-01-11T09:31:51;22.13;;;10.50;;
23322;SDS011;11833;52.554;13.554;2024-01-11T09:34:16;23.52;;;10.40;;
23322;SDS011;11833;52.554;13.554;2024-01-11T09:36:42;21.60;;;10.60;;
23322;SDS011;11833;52.554;13.554;2024-01-11T09:39:08;30.30;;;14.35;;
23322;SDS011;11833;52.554;13.554;2024-01-11T09:41:35;22.05;;;10.73;;
23322;SDS011;11833;52.554;13.554;2024-01-11T09:44:03;20.25;;;10.40;;
23322;SDS011;11833;52.554;13.554;2024-01-11T09:46:31;17.48;;;9.30;;
23322;SDS011;11833;52.554;13.554;2024-01-11T09:48:57;18.50;;;10.25;;
23322;SDS011;11833;52.554;13.554;2024-01-11T09:51:25;25.40;;;12.25;;
23322;SDS011;11833;52.554;13.554;2024-01-11T09:53:52;25.13;;;11.23;;
23322;SDS011;11833;52.554;13.554;2024-01-11T09:56:23;26.00;;;11.07;;
23322;SDS011;11833;52.554;13.554;2024-01-11T09:58:50;30.05;;;11.73;;
23322;SDS011;11833;52.554;13.554;2024-01-11T10:01:15;23.60;;;10.70;;
23322;SDS011;11833;52.554;13.554;2024-01-11T10:03:42;27.90;;;11.38;;
23322;SDS011;11833;52.554;13.554;2024-01-11T10:06:09;28.90;;;12.98;;
23322;SDS011;11833;52.554;13.554;2024-01-11T10:08:35;30.45;;;12.27;;
23322;SDS011;11833;52.554;13.554;2024-01-11T10:11:02;24.75;;;10.75;;
23322;SDS011;11833;52.554;13.554;2024-01-11T10:13:29;35.85;;;13.02;;
23322;SDS011;11833;52.554;13.554;2024-01-11T10:18:38;22.90;;;11.32;;
23322;SDS011;11833;52.554;13.554;2024-01-11T10:21:04;23.67;;;10.82;;
23322;SDS011;11833;52.554;13.554;2024-01-11T10:23:33;20.50;;;10.45;;
23322;SDS011;11833;52.554;13.554;2024-01-11T10:25:59;24.13;;;11.38;;
23322;SDS011;11833;52.554;13.554;2024-01-11T10:28:25;23.60;;;11.52;;
23322;SDS011;11833;52.554;13.554;2024-01-11T10:30:52;25.55;;;11.35;;
23322;SDS011;11833;52.554;13.554;2024-01-11T10:33:19;18.02;;;9.38;;
23322;SDS011;11833;52.554;13.554;2024-01-11T10:35:48;18.60;;;9.38;;
23322;SDS011;11833;52.554;13.554;2024-01-11T10:38:15;16.88;;;9.45;;
23322;SDS011;11833;52.554;13.554;2024-01-11T10:40:41;19.20;;;10.50;;
23322;SDS011;11833;52.554;13.554;2024-01-11T10:43:11;16.92;;;8.68;;
23322;SDS011;11833;52.554;13.554;2024-01-11T10:45:40;17.88;;;9.93;;
23322;SDS011;11833;52.554;13.554;2024-01-11T10:48:13;18.25;;;9.82;;
23322;SDS011;11833;52.554;13.554;2024-01-11T10:50:43;17.20;;;8.88;;
23322;SDS011;11833;52.554;13.554;2024-01-11T10:56:12;16.67;;;8.95;;
23322;SDS011;11833;52.554;13.554;2024-01-11T10:58:43;19.27;;;9.25;;
23322;SDS011;11833;52.554;13.554;2024-01-11T11:01:10;17.55;;;9.48;;
23322;SDS011;11833;52.554;13.554;2024-01-11T11:03:37;17.85;;;8.30;;
23322;SDS011;11833;52.554;13.554;2024-01-11T11:06:04;17.23;;;9.10;;
23322;SDS011;11833;52.554;13.554;2024-01-11T11:08:32;19.80;;;10.02;;
23322;SDS011;11833;52.554;13.554;2024-01-11T11:10:59;15.88;;;9.13;;
23322;SDS011;11833;52.554;13.554;2024-01-11T11:13:31;16.35;;;8.98;;
23322;SDS011;11833;52.554;13.554;2024-01-11T11:15:59;16.80;;;9.52;;
23322;SDS011;11833;52.554;13.554;2024-01-11T11:18:27;16.80;;;9.65;;
23322;SDS011;11833;52.554;13.554;2024-01-11T11:20:53;20.33;;;10.40;;
23322;SDS011;11833;52.554;13.554;2024-01-11T11:23:19;16.27;;;9.60;;
23322;SDS011;11833;52.554;13.554;2024-01-11T11:25:45;20.48;;;10.48;;
23322;SDS011;11833;52.554;13.554;2024-01-11T11:28:12;18.95;;;9.73;;
23322;SDS011;11833;52.554;13.554;2024-01-11T11:30:40;18.65;;;8.98;;
23322;SDS011;11833;52.554;13.554;2024-01-11T11:33:09;19.10;;;10.95;;
23322;SDS011;11833;52.554;13.554;2024-01-11T11:35:43;15.73;;;8.65;;
23322;SDS011;11833;52.554;13.554;2024-01-11T11:38:20;18.67;;;9.48;;
23322;SDS011;11833;52.554;13.554;2024-01-11T11:40:52;19.52;;;9.43;;
23322;SDS011;11833;52.554;13.554;2024-01-11T11:43:19;22.13;;;10.70;;
23322;SDS011;11833;52.554;13.554;2024-01-11T11:45:46;17.25;;;9.50;;
23322;SDS011;11833;52.554;13.554;2024-01-11T11:51:10;17.70;;;10.13;;
23322;SDS011;11833;52.554;13.554;2024-01-11T11:53:46;18.67;;;11.02;;
23322;SDS011;11833;52.554;13.554;2024-01-11T11:56:22;17.58;;;9.85;;
23322;SDS011;11833;52.554;13.554;2024-01-11T11:58:48;15.13;;;8.55;;
23322;SDS011;11833;52.554;13.554;2024-01-11T12:01:15;22.52;;;10.93;;
23322;SDS011;11833;52.554;13.554;2024-01-11T12:03:42;23.38;;;11.80;;
23322;SDS011;11833;52.554;13.554;2024-01-11T12:06:18;19.88;;;10.43;;
23322;SDS011;11833;52.554;13.554;2024-01-11T12:08:48;18.98;;;10.75;;
23322;SDS011;11833;52.554;13.554;2024-01-11T12:11:22;21.23;;;11.40;;
23322;SDS011;11833;52.554;13.554;2024-01-11T12:13:49;19.48;;;11.60;;
23322;SDS011;11833;52.554;13.554;2024-01-11T12:16:15;18.13;;;9.93;;
23322;SDS011;11833;52.554;13.554;2024-01-11T12:18:41;19.40;;;9.52;;
23322;SDS011;11833;52.554;13.554;2024-01-11T12:21:07;18.48;;;9.80;;
23322;SDS011;11833;52.554;13.554;2024-01-11T12:23:34;17.98;;;10.57;;
23322;SDS011;11833;52.554;13.554;2024-01-11T12:26:01;15.80;;;9.50;;
23322;SDS011;11833;52.554;13.554;2024-01-11T12:28:32;20.35;;;10.20;;
23322;SDS011;11833;52.554;13.554;2024-01-11T12:30:58;24.75;;;12.27;;
23322;SDS011;11833;52.554;13.554;2024-01-11T12:33:25;22.98;;;11.65;;
23322;SDS011;11833;52.554;13.554;2024-01-11T12:35:52;20.95;;;10.63;;
23322;SDS011;11833;52.554;13.554;2024-01-11T12:38:18;17.67;;;10.10;;
23322;SDS011;11833;52.554;13.554;2024-01-11T12:40:43;22.48;;;11.07;;
23322;SDS011;11833;52.554;13.554;2024-01-11T12:43:11;20.08;;;10.60;;
23322;SDS011;11833;52.554;13.554;2024-01-11T12:45:37;17.83;;;9.60;;
23322;SDS011;11833;52.554;13.554;2024-01-11T12:48:06;17.02;;;10.10;;
23322;SDS011;11833;52.554;13.554;2024-01-11T12:50:33;21.17;;;11.77;;
23322;SDS011;11833;52.554;13.554;2024-01-11T12:53:09;19.67;;;11.20;;
23322;SDS011;11833;52.554;13.554;2024-01-11T12:55:43;18.70;;;10.75;;
23322;SDS011;11833;52.554;13.554;2024-01-11T12:58:33;17.92;;;9.20;;
23322;SDS011;11833;52.554;13.554;2024-01-11T13:00:59;18.80;;;9.63;;
23322;SDS011;11833;52.554;13.554;2024-01-11T13:03:25;17.08;;;10.55;;
23322;SDS011;11833;52.554;13.554;2024-01-11T13:05:52;17.60;;;9.68;;
23322;SDS011;11833;52.554;13.554;2024-01-11T13:08:18;19.33;;;10.25;;
23322;SDS011;11833;52.554;13.554;2024-01-11T13:10:43;19.15;;;11.23;;
23322;SDS011;11833;52.554;13.554;2024-01-11T13:13:09;20.33;;;10.65;;
23322;SDS011;11833;52.554;13.554;2024-01-11T13:15:35;19.67;;;10.00;;
23322;SDS011;11833;52.554;13.554;2024-01-11T13:18:01;20.40;;;10.30;;
23322;SDS011;11833;52.554;13.554;2024-01-11T13:20:28;20.98;;;10.38;;
23322;SDS011;11833;52.554;13.554;2024-01-11T13:25:39;17.27;;;9.32;;
23322;SDS011;11833;52.554;13.554;2024-01-11T13:28:06;20.73;;;10.07;;
23322;SDS011;11833;52.554;13.554;2024-01-11T13:30:32;19.80;;;9.95;;
23322;SDS011;11833;52.554;13.554;2024-01-11T13:32:58;20.42;;;10.55;;
23322;SDS011;11833;52.554;13.554;2024-01-11T13:35:24;18.55;;;9.90;;
23322;SDS011;11833;52.554;13.554;2024-01-11T13:37:50;24.13;;;10.65;;
23322;SDS011;11833;52.554;13.554;2024-01-11T13:40:16;18.27;;;9.30;;
23322;SDS011;11833;52.554;13.554;2024-01-11T13:42:41;16.02;;;9.10;;
23322;SDS011;11833;52.554;13.554;2024-01-11T13:45:08;20.98;;;9.63;;
23322;SDS011;11833;52.554;13.554;2024-01-11T13:47:37;16.02;;;9.38;;
23322;SDS011;11833;52.554;13.554;2024-01-11T13:50:03;24.17;;;9.45;;
23322;SDS011;11833;52.554;13.554;2024-01-11T13:52:29;18.25;;;8.48;;
23322;SDS011;11833;52.554;13.554;2024-01-11T13:54:55;17.33;;;8.52;;
23322;SDS011;11833;52.554;13.554;2024-01-11T13:57:21;11.77;;;7.43;;
23322;SDS011;11833;52.554;13.554;2024-01-11T13:59:46;13.68;;;7.78;;
23322;SDS011;11833;52.554;13.554;2024-01-11T14:02:12;16.02;;;8.07;;
23322;SDS011;11833;52.554;13.554;2024-01-11T14:04:38;14.75;;;8.15;;
23322;SDS011;11833;52.554;13.554;2024-01-11T14:07:04;15.13;;;8.07;;
23322;SDS011;11833;52.554;13.554;2024-01-11T14:09:31;13.93;;;7.88;;
23322;SDS011;11833;52.554;13.554;2024-01-11T14:11:56;15.00;;;7.53;;
23322;SDS011;11833;52.554;13.554;2024-01-11T14:14:22;17.42;;;8.80;;
23322;SDS011;11833;52.554;13.554;2024-01-11T14:16:48;13.18;;;7.95;;
23322;SDS011;11833;52.554;13.554;2024-01-11T14:19:14;16.05;;;7.80;;
23322;SDS011;11833;52.554;13.554;2024-01-11T14:21:40;14.00;;;8.50;;
23322;SDS011;11833;52.554;13.554;2024-01-11T14:24:05;17.17;;;7.35;;
23322;SDS011;11833;52.554;13.554;2024-01-11T14:26:32;16.95;;;8.23;;